Главная страница
METAR-TAF:

METAR-TAF

Аэропорты :

Форт-Мид, Мэриленд, США

широта: 39-05N, долгота: 076-46W, высота над уровнем моря: 46 м

Текущие метеонаблюдения

Эта сводка был подготовлена 10 минут назад, в 21:36 UTC
Ветер 4 Узел от юго-юго-восточный
Температура 30°C
Влажность 49%
Давление 1018 hPa
Видимость: 16.1 км
ясное небо

METAR: KFME 172136Z AUTO 15004KT 10SM CLR 30/18 A3007 RMK AO1

Время: 17:46 (21:46 UTC)


TAF: отсутствует

Метеонаблюдения и прогнозы для более 4000 аэропортов (сводки METAR и TAF).

Имеющиеся станции представлены на карте желтыми и красными точками.

Чтобы увидеть название станции, наведите на нее мышь.

Затем щелкните, чтобы увидеть метеонаблюдения и метеопрогнозы.

Управление картой: чтобы увеличить масштаб, щелкните зеленые кнопки с черным крестиком; чтобы уменьшить масштаб, щелкните зеленую кнопку с тире; для просмотра соседних карт щелкайте зеленые стрелки.


METAR-TAF: